Time;durP1;ratioP1;P1;durP2;ratioP2;P2;SDS_P1;SDS_P2;PMS_P1;PMS_P2;Temp;Humidity;BMP_temperature;BMP_pressure;BME280_temperature;BME280_humidity;BME280_pressure;Samples;Min_cycle;Max_cycle;Signal;HPM_P1;HPM_P2
2023/04/23 00:01:19;;;;;;;3.20;1.80;;;;;;;16.31;64.17;98009.31;5013971;27;103457;-57
2023/04/23 00:03:49;;;;;;;2.92;1.80;;;;;;;16.48;62.96;98008.34;5005023;27;103145;-58
2023/04/23 00:06:18;;;;;;;2.47;1.90;;;;;;;16.54;62.54;98010.41;5006216;27;102835;-57
2023/04/23 00:08:47;;;;;;;2.97;1.90;;;;;;;16.57;61.90;98012.75;5005184;27;102716;-58
2023/04/23 00:11:16;;;;;;;4.93;2.33;;;;;;;16.40;62.30;98008.34;4999464;27;103156;-57
2023/04/23 00:13:46;;;;;;;3.45;1.85;;;;;;;16.56;61.64;98019.06;5006925;27;104452;-58
2023/04/23 00:16:16;;;;;;;2.20;1.85;;;;;;;16.49;62.14;98020.69;5008651;27;102805;-58
2023/04/23 00:18:45;;;;;;;4.18;2.00;;;;;;;16.42;62.46;98011.69;5008794;27;103028;-57
2023/04/23 00:21:14;;;;;;;1.98;1.70;;;;;;;16.58;61.57;98014.44;5004855;27;103459;-58
2023/04/23 00:23:41;;;;;;;1.98;1.67;;;;;;;16.55;61.66;98014.75;5004819;27;104256;-58
2023/04/23 00:26:10;;;;;;;2.97;1.60;;;;;;;16.32;62.18;98013.66;5013588;27;102610;-58
2023/04/23 00:28:38;;;;;;;2.55;2.08;;;;;;;16.45;62.32;98010.53;5015528;27;102697;-58
2023/04/23 00:31:06;;;;;;;3.15;2.00;;;;;;;16.31;63.03;98006.66;5000834;27;103636;-58
2023/04/23 00:33:38;;;;;;;5.43;2.08;;;;;;;16.38;63.27;98014.84;5007454;27;103910;-57
2023/04/23 00:36:07;;;;;;;2.15;1.58;;;;;;;16.43;63.72;98016.03;5004094;27;102778;-57
2023/04/23 00:38:36;;;;;;;3.38;2.10;;;;;;;16.39;64.54;98021.84;5010181;27;102698;-57
2023/04/23 00:41:04;;;;;;;3.70;2.10;;;;;;;16.00;66.17;98022.38;4986350;27;104439;-60
2023/04/23 00:43:33;;;;;;;2.40;1.73;;;;;;;16.25;65.93;98031.31;5006099;27;105705;-57
2023/04/23 00:46:01;;;;;;;3.38;2.28;;;;;;;16.13;66.71;98022.78;5004514;27;102671;-57
2023/04/23 00:48:30;;;;;;;2.80;2.13;;;;;;;15.93;66.87;98031.19;5000971;27;102785;-57
2023/04/23 00:51:03;;;;;;;3.05;1.90;;;;;;;15.97;67.82;98032.56;5006378;27;103271;-58
2023/04/23 00:53:31;;;;;;;3.65;2.15;;;;;;;15.91;68.32;98043.84;5009967;27;103258;-57
2023/04/23 00:56:01;;;;;;;3.10;1.90;;;;;;;15.78;68.81;98048.75;5011401;27;102856;-57
2023/04/23 00:58:29;;;;;;;2.28;1.95;;;;;;;15.80;69.42;98044.13;5001294;27;103373;-57
2023/04/23 01:00:58;;;;;;;2.28;1.95;;;;;;;15.71;68.95;98045.91;5003846;27;103920;-57
2023/04/23 01:03:28;;;;;;;3.47;2.05;;;;;;;15.69;69.62;98049.72;5011061;27;104300;-57
2023/04/23 01:05:57;;;;;;;4.83;2.30;;;;;;;15.87;69.35;98042.47;5009904;27;103416;-57
2023/04/23 01:08:31;;;;;;;4.03;2.20;;;;;;;15.95;69.44;98046.00;5002013;27;103208;-58
2023/04/23 01:11:00;;;;;;;3.45;2.10;;;;;;;15.82;69.50;98050.13;5017943;27;104439;-57
2023/04/23 01:13:29;;;;;;;3.60;2.27;;;;;;;15.74;70.53;98047.41;5004951;27;103086;-57
2023/04/23 01:15:57;;;;;;;2.63;2.17;;;;;;;15.91;70.10;98043.84;5007698;27;102947;-57
2023/04/23 01:18:26;;;;;;;2.67;1.80;;;;;;;16.00;69.65;98051.69;5009408;27;102675;-57
2023/04/23 01:20:54;;;;;;;1.77;1.57;;;;;;;16.01;70.20;98056.03;5019823;27;105575;-57
2023/04/23 01:23:25;;;;;;;3.57;2.10;;;;;;;15.78;70.56;98062.06;5011762;27;103177;-57
2023/04/23 01:25:54;;;;;;;2.53;2.10;;;;;;;15.89;70.09;98059.13;5001125;27;102663;-57
2023/04/23 01:28:22;;;;;;;2.78;2.40;;;;;;;15.67;70.65;98063.19;5000247;27;102722;-57
2023/04/23 01:30:51;;;;;;;2.00;1.53;;;;;;;15.92;69.32;98064.97;5020549;27;104412;-57
2023/04/23 01:33:20;;;;;;;3.08;1.67;;;;;;;15.75;70.07;98065.06;5006360;27;103096;-57
2023/04/23 01:35:50;;;;;;;2.57;2.07;;;;;;;15.84;69.44;98064.94;5015205;27;102777;-57
2023/04/23 01:38:20;;;;;;;3.83;2.08;;;;;;;15.53;69.93;98061.94;5013478;27;102733;-60
2023/04/23 01:40:49;;;;;;;1.80;1.70;;;;;;;15.55;70.56;98075.09;4999619;27;103193;-57
2023/04/23 01:43:17;;;;;;;2.83;2.43;;;;;;;15.32;71.79;98069.44;4999709;27;104259;-57
2023/04/23 01:45:45;;;;;;;3.33;2.10;;;;;;;15.72;70.46;98082.19;5010237;27;103137;-57
2023/04/23 01:48:14;;;;;;;3.03;2.00;;;;;;;15.40;71.91;98077.47;5009900;27;102692;-57
2023/04/23 01:50:43;;;;;;;4.33;2.27;;;;;;;15.53;71.14;98077.91;5003207;27;103422;-57
2023/04/23 01:53:11;;;;;;;2.53;1.80;;;;;;;15.74;70.72;98068.72;5001298;27;103233;-57
2023/04/23 01:55:40;;;;;;;2.63;2.03;;;;;;;15.73;70.39;98080.34;5008495;27;102734;-57
2023/04/23 01:58:09;;;;;;;2.60;2.07;;;;;;;15.73;70.48;98072.38;5008972;27;102816;-57
2023/04/23 02:00:37;;;;;;;2.17;1.87;;;;;;;15.82;70.43;98076.75;5009822;27;103346;-57
2023/04/23 02:03:05;;;;;;;2.27;1.90;;;;;;;15.86;69.87;98078.13;5007442;27;103589;-57
2023/04/23 02:05:35;;;;;;;3.13;2.00;;;;;;;15.92;69.57;98085.44;5006123;27;102955;-57
2023/04/23 02:08:04;;;;;;;2.83;2.10;;;;;;;15.89;70.06;98078.59;5008133;27;102795;-57
2023/04/23 02:10:32;;;;;;;2.87;1.87;;;;;;;15.90;70.02;98074.97;5007333;27;103328;-57
2023/04/23 02:13:01;;;;;;;1.80;1.70;;;;;;;15.87;70.51;98079.75;5002549;27;103146;-57
2023/04/23 02:15:31;;;;;;;4.07;1.90;;;;;;;15.81;71.42;98081.22;5009672;27;102588;-57
2023/04/23 02:18:00;;;;;;;2.47;1.90;;;;;;;15.60;72.14;98083.44;5009189;27;102676;-57
2023/04/23 02:20:28;;;;;;;2.97;1.87;;;;;;;15.77;71.82;98095.88;5008927;27;103867;-57
2023/04/23 02:22:56;;;;;;;2.13;1.90;;;;;;;15.70;72.99;98101.97;5009378;27;103187;-57
2023/04/23 02:25:26;;;;;;;3.17;2.30;;;;;;;15.62;73.94;98105.44;5011631;27;103541;-57
2023/04/23 02:27:56;;;;;;;2.40;1.87;;;;;;;15.58;74.07;98102.22;5004664;27;103707;-58
2023/04/23 02:30:24;;;;;;;2.20;1.83;;;;;;;15.66;73.97;98110.25;4999347;27;103354;-57
2023/04/23 02:32:54;;;;;;;2.90;2.07;;;;;;;15.73;73.63;98101.66;5013956;27;104652;-57
2023/04/23 02:35:22;;;;;;;2.87;1.90;;;;;;;15.72;74.65;98108.00;5003344;27;102945;-57
2023/04/23 02:37:51;;;;;;;1.47;1.37;;;;;;;15.70;74.98;98104.63;5010254;27;102881;-57
2023/04/23 02:40:19;;;;;;;2.90;1.90;;;;;;;15.43;77.80;98102.94;4999642;27;103549;-57
2023/04/23 02:42:47;;;;;;;2.80;1.83;;;;;;;15.52;77.23;98100.19;4999933;27;103653;-57
2023/04/23 02:45:15;;;;;;;3.33;2.20;;;;;;;15.38;78.26;98095.41;5013444;27;102606;-57
2023/04/23 02:47:43;;;;;;;2.40;1.80;;;;;;;15.14;80.42;98092.56;5006878;27;103088;-58
2023/04/23 02:50:13;;;;;;;3.90;2.53;;;;;;;15.05;80.91;98088.16;5009258;27;104748;-57
2023/04/23 02:52:41;;;;;;;3.60;2.40;;;;;;;14.93;82.07;98092.06;5006680;27;103422;-57
2023/04/23 02:55:10;;;;;;;4.40;2.80;;;;;;;14.96;82.13;98083.78;5005245;27;103099;-57
2023/04/23 02:57:39;;;;;;;2.23;1.97;;;;;;;14.71;83.53;98073.91;5006673;27;102863;-58
2023/04/23 03:00:11;;;;;;;3.17;2.20;;;;;;;14.79;83.83;98072.13;4999938;27;103707;-57
2023/04/23 03:02:42;;;;;;;2.13;1.93;;;;;;;15.04;82.22;98078.53;5017596;27;103184;-57
2023/04/23 03:05:14;;;;;;;2.00;1.80;;;;;;;15.18;81.25;98085.94;5010271;27;102596;-57
2023/04/23 03:07:42;;;;;;;2.67;2.10;;;;;;;15.26;81.79;98096.66;5007330;27;102736;-57
2023/04/23 03:10:11;;;;;;;1.83;1.73;;;;;;;15.33;81.37;98102.19;5000427;27;103371;-57
2023/04/23 03:12:39;;;;;;;2.37;1.70;;;;;;;15.35;80.93;98106.38;5003061;27;103067;-57
2023/04/23 03:15:07;;;;;;;3.80;2.30;;;;;;;15.36;80.35;98093.88;5004038;27;104475;-57
2023/04/23 03:17:37;;;;;;;2.60;2.40;;;;;;;14.59;85.27;98096.38;5010947;27;102789;-57
2023/04/23 03:20:09;;;;;;;3.40;2.70;;;;;;;14.75;84.92;98096.53;5000049;27;111734;-57
2023/04/23 03:22:40;;;;;;;2.73;2.47;;;;;;;14.74;84.84;98094.84;5012090;27;103900;-57
2023/04/23 03:25:09;;;;;;;3.53;2.63;;;;;;;14.57;85.71;98093.03;5014710;27;102885;-57
2023/04/23 03:27:38;;;;;;;3.67;2.43;;;;;;;14.76;85.67;98084.91;5003953;27;102685;-57
2023/04/23 03:30:08;;;;;;;4.33;2.90;;;;;;;14.10;88.87;98085.13;5014911;27;103190;-57
2023/04/23 03:32:37;;;;;;;3.00;1.90;;;;;;;14.63;86.68;98073.78;4996118;27;103268;-57
2023/04/23 03:35:05;;;;;;;4.23;2.70;;;;;;;14.38;87.73;98076.19;5003327;27;102644;-58
2023/04/23 03:37:34;;;;;;;2.50;2.30;;;;;;;14.60;86.30;98074.09;5012230;27;102670;-57
2023/04/23 03:40:06;;;;;;;3.27;2.70;;;;;;;14.72;85.15;98078.22;5008683;27;103917;-57
2023/04/23 03:42:38;;;;;;;2.27;1.97;;;;;;;14.86;84.32;98069.69;5013611;27;104267;-57
2023/04/23 03:45:08;;;;;;;3.93;2.63;;;;;;;14.82;84.16;98073.66;4998000;27;102778;-57
2023/04/23 03:47:36;;;;;;;4.00;2.50;;;;;;;14.83;83.75;98077.97;4988572;27;102766;-57
2023/04/23 03:50:05;;;;;;;1.93;1.60;;;;;;;14.82;84.48;98079.00;5006251;27;103578;-58
2023/04/23 03:52:34;;;;;;;2.57;1.87;;;;;;;14.66;84.80;98074.34;5003360;27;104379;-57
2023/04/23 03:55:04;;;;;;;2.77;2.00;;;;;;;14.73;84.38;98069.25;4994127;27;102779;-57
2023/04/23 03:57:39;;;;;;;2.87;1.90;;;;;;;14.86;83.53;98077.69;5004367;27;104094;-57
2023/04/23 04:00:39;;;;;;;1.70;1.60;;;;;;;14.86;82.84;98077.69;4993256;27;103851;-57
2023/04/23 04:03:08;;;;;;;1.90;1.70;;;;;;;14.90;82.83;98084.38;5002211;27;104586;-57
2023/04/23 04:05:39;;;;;;;2.10;1.90;;;;;;;14.72;84.04;98086.19;5004075;27;102959;-57
2023/04/23 04:08:08;;;;;;;3.40;2.20;;;;;;;14.75;84.57;98096.53;5003824;27;102984;-57
2023/04/23 04:10:39;;;;;;;2.03;1.80;;;;;;;14.79;83.73;98100.56;4998039;27;102795;-57
2023/04/23 04:13:07;;;;;;;2.67;2.20;;;;;;;14.62;84.76;98102.22;5006777;27;104482;-57
2023/04/23 04:15:35;;;;;;;2.07;1.87;;;;;;;14.49;85.37;98102.56;5008701;27;102908;-57
2023/04/23 04:18:03;;;;;;;2.43;2.00;;;;;;;14.68;84.79;98108.75;4995643;27;103110;-57
2023/04/23 04:20:31;;;;;;;2.03;1.80;;;;;;;14.77;84.06;98099.84;4997369;27;103163;-58
2023/04/23 04:22:59;;;;;;;2.27;1.90;;;;;;;14.66;84.81;98097.41;5003224;27;104311;-57
2023/04/23 04:25:29;;;;;;;2.47;2.27;;;;;;;14.61;84.60;98100.53;5000444;27;102779;-57
2023/04/23 04:27:59;;;;;;;2.43;2.20;;;;;;;14.47;84.86;98099.22;4999528;27;102750;-57
2023/04/23 04:30:27;;;;;;;2.23;2.00;;;;;;;14.30;85.57;98104.47;4996243;27;103402;-58
2023/04/23 04:32:55;;;;;;;2.20;2.00;;;;;;;14.18;85.76;98098.50;5009721;27;103103;-57
2023/04/23 04:35:23;;;;;;;2.17;1.83;;;;;;;14.08;86.14;98108.38;5002615;27;102936;-58
2023/04/23 04:37:53;;;;;;;2.57;1.80;;;;;;;14.08;86.78;98121.66;5012271;27;102715;-57
2023/04/23 04:40:21;;;;;;;1.90;1.70;;;;;;;14.16;85.73;98120.91;5004587;27;103112;-57
2023/04/23 04:42:50;;;;;;;2.17;1.90;;;;;;;14.10;86.16;98111.69;5013421;27;103201;-57
2023/04/23 04:45:19;;;;;;;2.53;2.03;;;;;;;14.09;86.09;98120.63;5008116;27;103688;-57
2023/04/23 04:47:47;;;;;;;2.17;1.83;;;;;;;14.18;86.42;98116.25;5012702;27;103610;-57
2023/04/23 04:50:15;;;;;;;2.23;2.03;;;;;;;13.84;87.72;98116.00;5009082;27;104296;-58
2023/04/23 04:52:43;;;;;;;3.20;2.17;;;;;;;14.12;87.21;98114.22;5007550;27;104249;-57
2023/04/23 04:55:11;;;;;;;2.20;2.00;;;;;;;14.06;87.50;98109.50;5002881;27;103094;-57
2023/04/23 04:57:39;;;;;;;4.07;1.97;;;;;;;14.02;88.17;98113.41;5003869;27;103918;-57
2023/04/23 05:00:23;;;;;;;3.30;2.20;;;;;;;14.06;88.08;98113.00;5006659;27;103236;-57
2023/04/23 05:02:51;;;;;;;1.13;1.10;;;;;;;14.24;87.13;98124.50;5008774;27;104341;-57
2023/04/23 05:05:23;;;;;;;3.60;1.83;;;;;;;14.31;86.52;98114.13;5006427;27;102629;-58
2023/04/23 05:07:53;;;;;;;2.57;1.70;;;;;;;14.42;86.10;98101.50;5011785;27;102847;-58
2023/04/23 05:10:21;;;;;;;1.60;1.50;;;;;;;14.56;85.79;98107.28;5007276;27;103325;-57
2023/04/23 05:12:50;;;;;;;2.00;1.80;;;;;;;14.52;86.11;98099.63;5015236;27;104258;-58
2023/04/23 05:15:19;;;;;;;2.37;1.73;;;;;;;14.55;86.12;98105.59;5005915;27;102804;-56
2023/04/23 05:17:49;;;;;;;1.70;1.60;;;;;;;14.73;85.37;98101.16;5007551;27;103015;-57
2023/04/23 05:20:20;;;;;;;1.47;1.37;;;;;;;14.87;84.63;98105.94;5010410;27;104365;-58
2023/04/23 05:22:48;;;;;;;1.60;1.50;;;;;;;15.01;83.79;98103.59;5005408;27;103580;-57
2023/04/23 05:25:16;;;;;;;2.00;1.80;;;;;;;15.16;83.51;98106.53;5012092;27;102955;-57
2023/04/23 05:27:44;;;;;;;1.83;1.70;;;;;;;15.10;82.07;98104.50;5006610;27;102949;-57
2023/04/23 05:30:12;;;;;;;1.67;1.57;;;;;;;15.19;81.75;98105.38;5008213;27;109830;-57
2023/04/23 05:32:40;;;;;;;1.43;1.20;;;;;;;15.27;80.82;98110.81;5009426;27;103913;-57
2023/04/23 05:35:09;;;;;;;1.47;1.37;;;;;;;15.37;80.33;98109.72;5000752;27;103067;-57
2023/04/23 05:37:38;;;;;;;1.30;1.20;;;;;;;15.41;80.35;98116.38;5005723;27;102637;-58
2023/04/23 05:40:10;;;;;;;2.10;1.50;;;;;;;15.36;81.00;98112.50;5006651;27;103283;-57
2023/04/23 05:42:38;;;;;;;1.40;1.30;;;;;;;15.74;79.18;98111.31;5008828;27;103331;-57
2023/04/23 05:45:07;;;;;;;2.67;1.60;;;;;;;15.83;79.05;98110.38;5001127;27;103042;-57
2023/04/23 05:47:36;;;;;;;1.50;1.40;;;;;;;16.13;78.60;98107.22;4998294;27;102867;-57
2023/04/23 05:50:05;;;;;;;1.50;1.40;;;;;;;16.32;77.24;98109.63;4998524;27;104365;-58
2023/04/23 05:52:36;;;;;;;2.07;1.60;;;;;;;16.41;76.95;98116.66;5008346;27;103310;-57
2023/04/23 05:55:08;;;;;;;1.45;1.30;;;;;;;16.55;75.57;98110.75;5000418;27;103193;-55
2023/04/23 05:57:37;;;;;;;1.48;1.20;;;;;;;16.74;74.55;98115.78;5000665;27;102819;-57
2023/04/23 06:00:10;;;;;;;1.65;1.50;;;;;;;16.73;73.88;98116.78;5000736;27;103373;-57
2023/04/23 06:02:41;;;;;;;1.63;1.20;;;;;;;16.17;76.42;98121.88;5004985;27;104412;-57
2023/04/23 06:05:10;;;;;;;1.30;1.20;;;;;;;16.26;76.36;98120.91;5007398;27;102642;-57
2023/04/23 06:07:40;;;;;;;1.30;1.10;;;;;;;16.21;76.26;98117.91;5011204;27;102726;-57
2023/04/23 06:10:09;;;;;;;1.60;1.40;;;;;;;16.29;76.06;98115.28;5004695;27;104381;-57
2023/04/23 06:12:38;;;;;;;1.08;0.98;;;;;;;16.33;76.66;98113.97;5014179;27;103168;-57
2023/04/23 06:15:08;;;;;;;2.35;1.10;;;;;;;16.28;75.95;98110.91;5006017;27;102915;-57
2023/04/23 06:17:36;;;;;;;2.20;1.00;;;;;;;16.23;76.15;98113.25;5009105;27;102604;-57
2023/04/23 06:20:06;;;;;;;1.30;1.10;;;;;;;16.34;75.33;98115.63;4999744;27;103205;-57
2023/04/23 06:22:34;;;;;;;1.87;1.27;;;;;;;16.44;75.13;98115.50;5000617;27;104232;-57
2023/04/23 06:25:04;;;;;;;1.40;1.03;;;;;;;16.50;74.82;98118.38;5005602;27;102731;-56
2023/04/23 06:27:32;;;;;;;1.10;1.00;;;;;;;16.54;74.67;98110.88;5004520;27;102704;-57
2023/04/23 06:30:08;;;;;;;1.97;1.20;;;;;;;16.52;74.96;98112.84;5000813;27;103222;-56
2023/04/23 06:32:36;;;;;;;1.25;1.15;;;;;;;16.08;76.62;98120.19;5007269;27;105914;-57
2023/04/23 06:35:04;;;;;;;1.33;1.20;;;;;;;16.10;76.15;98115.53;5001609;27;102689;-56
2023/04/23 06:37:33;;;;;;;1.10;1.00;;;;;;;16.16;76.05;98117.56;4997108;27;103094;-57
2023/04/23 06:40:01;;;;;;;3.43;1.80;;;;;;;16.35;75.34;98106.63;5007146;27;104296;-57
2023/04/23 06:42:30;;;;;;;1.37;1.20;;;;;;;16.31;75.25;98105.28;5004589;27;104378;-58
2023/04/23 06:45:14;;;;;;;1.20;1.03;;;;;;;16.38;74.69;98098.31;5006248;27;102782;-57
2023/04/23 06:47:42;;;;;;;1.63;0.90;;;;;;;16.43;74.29;98098.66;5001025;27;102666;-57
2023/04/23 06:50:10;;;;;;;1.63;0.80;;;;;;;16.86;73.49;98100.31;4998772;27;103385;-57
2023/04/23 06:52:39;;;;;;;0.93;0.87;;;;;;;16.79;73.17;98094.78;5001837;27;103504;-57
2023/04/23 06:55:08;;;;;;;1.70;0.80;;;;;;;17.09;72.97;98084.50;5003788;27;103059;-57
2023/04/23 06:57:39;;;;;;;1.10;1.00;;;;;;;17.15;72.55;98092.66;5004008;27;103303;-57
2023/04/23 07:00:10;;;;;;;1.10;1.00;;;;;;;17.63;71.34;98082.97;5004608;27;105574;-57
2023/04/23 07:02:41;;;;;;;1.50;1.20;;;;;;;17.09;70.62;98082.66;4991548;27;104440;-57
2023/04/23 07:05:11;;;;;;;1.10;0.77;;;;;;;17.28;70.40;98084.16;5010326;27;102644;-57
2023/04/23 07:07:41;;;;;;;1.88;1.27;;;;;;;17.25;71.59;98087.16;4995227;27;103158;-57
2023/04/23 07:10:13;;;;;;;1.35;0.93;;;;;;;17.68;70.61;98075.28;5002180;27;104360;-57
2023/04/23 07:12:46;;;;;;;2.67;1.00;;;;;;;17.68;67.21;98075.28;5000885;27;103429;-57
2023/04/23 07:15:14;;;;;;;1.27;1.00;;;;;;;17.27;70.13;98082.47;4999926;27;103053;-57
2023/04/23 07:17:42;;;;;;;2.00;1.00;;;;;;;17.33;71.51;98077.31;4996926;27;102809;-56
2023/04/23 07:20:11;;;;;;;3.07;1.00;;;;;;;17.43;71.64;98077.16;4996025;27;104376;-57
2023/04/23 07:22:39;;;;;;;1.25;1.13;;;;;;;17.03;72.50;98077.16;4998868;27;105639;-57
2023/04/23 07:25:08;;;;;;;1.40;0.97;;;;;;;17.00;69.80;98080.13;4993333;27;102835;-57
2023/04/23 07:27:36;;;;;;;1.00;0.90;;;;;;;17.01;67.93;98079.16;5002521;27;102662;-57
2023/04/23 07:30:08;;;;;;;0.70;0.70;;;;;;;17.04;68.86;98076.16;5001584;27;103279;-57
2023/04/23 07:32:39;;;;;;;2.15;0.73;;;;;;;16.96;69.06;98078.78;4996530;27;103212;-57
2023/04/23 07:35:10;;;;;;;1.07;0.73;;;;;;;17.25;69.27;98068.47;5005502;27;102985;-57
2023/04/23 07:37:38;;;;;;;1.10;0.80;;;;;;;17.02;69.88;98067.47;4996703;27;102834;-57
2023/04/23 07:40:09;;;;;;;1.17;0.90;;;;;;;17.18;68.42;98075.47;4999654;27;103593;-57
2023/04/23 07:42:38;;;;;;;0.95;0.93;;;;;;;17.11;68.65;98064.63;5004764;27;104247;-57
2023/04/23 07:45:11;;;;;;;1.17;0.98;;;;;;;17.42;67.98;98070.13;5007703;27;102763;-58
2023/04/23 07:47:39;;;;;;;0.90;0.80;;;;;;;17.55;67.46;98061.59;4998959;27;102930;-57
2023/04/23 07:50:08;;;;;;;1.02;0.75;;;;;;;17.74;67.55;98062.06;4998498;27;103379;-57
2023/04/23 07:52:36;;;;;;;1.05;0.80;;;;;;;17.93;66.38;98064.38;5000070;27;104490;-57
2023/04/23 07:55:06;;;;;;;0.98;0.88;;;;;;;17.62;65.13;98060.78;4998703;27;102816;-56
2023/04/23 07:57:34;;;;;;;1.60;1.23;;;;;;;17.89;68.06;98055.03;5000363;27;102694;-57
2023/04/23 08:00:02;;;;;;;1.60;0.88;;;;;;;19.04;62.05;98049.72;5003687;27;103206;-57
2023/04/23 08:02:40;;;;;;;0.75;0.70;;;;;;;19.24;60.66;98043.88;4998758;27;104301;-58
2023/04/23 08:05:09;;;;;;;0.85;0.77;;;;;;;19.49;59.13;98045.34;4996757;27;102997;-57
2023/04/23 08:07:38;;;;;;;0.95;0.85;;;;;;;19.19;58.61;98043.59;4993581;27;102820;-56
2023/04/23 08:10:07;;;;;;;0.80;0.73;;;;;;;19.30;60.69;98051.19;4994128;27;103534;-57
2023/04/23 08:12:35;;;;;;;1.38;0.95;;;;;;;19.44;60.44;98039.69;4998261;27;103113;-56
2023/04/23 08:15:04;;;;;;;1.23;1.10;;;;;;;19.02;61.01;98037.53;5003138;27;102755;-56
2023/04/23 08:17:40;;;;;;;1.08;0.88;;;;;;;19.11;61.70;98045.31;5004208;27;102745;-56
2023/04/23 08:20:09;;;;;;;1.50;0.90;;;;;;;19.31;60.05;98031.44;4998735;27;104377;-57
2023/04/23 08:22:37;;;;;;;1.20;1.10;;;;;;;18.96;60.36;98024.88;4996902;27;103284;-57
2023/04/23 08:25:06;;;;;;;1.10;1.00;;;;;;;18.47;61.61;98018.97;5004350;27;102873;-57
2023/04/23 08:27:36;;;;;;;2.35;1.08;;;;;;;18.68;62.88;98023.75;4999264;27;102692;-56
2023/04/23 08:30:20;;;;;;;2.70;1.10;;;;;;;18.22;61.31;98030.81;4995283;27;105338;-56
2023/04/23 08:32:53;;;;;;;1.52;0.95;;;;;;;18.91;62.52;98029.94;4998545;27;103504;-56
2023/04/23 08:35:22;;;;;;;1.38;1.13;;;;;;;19.28;60.07;98027.28;5005197;27;102692;-57
2023/04/23 08:37:50;;;;;;;1.30;1.20;;;;;;;19.56;58.19;98022.19;5001377;27;102904;-57
2023/04/23 08:40:19;;;;;;;1.58;1.20;;;;;;;18.79;58.54;98024.16;5005825;27;103540;-57
2023/04/23 08:43:01;;;;;;;1.05;0.95;;;;;;;19.33;58.89;98010.66;5003333;27;103265;-56
2023/04/23 08:45:30;;;;;;;1.63;1.10;;;;;;;18.99;58.84;98025.34;5002134;27;102724;-56
2023/04/23 08:48:01;;;;;;;1.52;1.25;;;;;;;17.99;61.47;98019.25;5011739;27;103138;-56
2023/04/23 08:50:30;;;;;;;2.92;1.25;;;;;;;19.09;60.50;98017.88;5002114;27;103859;-56
2023/04/23 08:53:00;;;;;;;1.10;1.00;;;;;;;19.32;59.48;98008.97;4997730;27;103451;-57
2023/04/23 08:55:28;;;;;;;1.10;1.00;;;;;;;18.84;59.08;98016.44;5002307;27;102621;-57
2023/04/23 08:57:59;;;;;;;1.20;1.10;;;;;;;19.79;60.05;98016.75;5002455;27;103076;-56
2023/04/23 09:00:30;;;;;;;1.13;0.95;;;;;;;19.28;58.77;98018.41;4991910;27;105271;-56
2023/04/23 09:03:01;;;;;;;1.27;0.98;;;;;;;19.75;59.13;98013.59;5005237;27;104838;-55
2023/04/23 09:05:32;;;;;;;1.10;1.02;;;;;;;21.06;54.32;98014.28;5001357;27;103054;-60
2023/04/23 09:08:01;;;;;;;1.30;1.20;;;;;;;20.97;55.10;98012.78;5003091;27;103452;-56
2023/04/23 09:10:34;;;;;;;1.20;1.10;;;;;;;21.22;54.40;98006.00;5006471;27;104666;-57
2023/04/23 09:13:02;;;;;;;1.75;1.55;;;;;;;20.32;54.66;98003.03;4998552;27;104229;-57
2023/04/23 09:15:30;;;;;;;2.15;1.50;;;;;;;19.26;59.19;97999.00;4999695;27;103022;-57
2023/04/23 09:18:01;;;;;;;1.95;1.40;;;;;;;18.88;57.80;97990.97;5000968;27;102899;-56
2023/04/23 09:20:29;;;;;;;1.20;1.10;;;;;;;19.01;59.84;97996.56;4997523;27;104960;-57
2023/04/23 09:22:57;;;;;;;1.23;1.10;;;;;;;19.37;57.33;97985.19;4998124;27;103741;-56
2023/04/23 09:25:26;;;;;;;1.10;1.00;;;;;;;18.88;57.13;97984.78;5005482;27;102799;-56
2023/04/23 09:27:54;;;;;;;2.03;1.20;;;;;;;19.84;54.69;97979.50;5000085;27;102768;-56
2023/04/23 09:30:24;;;;;;;1.30;1.20;;;;;;;19.40;54.88;97979.47;5000895;27;103504;-57
2023/04/23 09:32:52;;;;;;;1.35;1.20;;;;;;;19.86;57.80;97970.25;5002932;27;103431;-56
2023/04/23 09:35:28;;;;;;;1.23;1.13;;;;;;;20.53;54.49;97972.69;5006823;27;103114;-56
2023/04/23 09:37:57;;;;;;;1.20;1.10;;;;;;;21.66;52.35;97960.00;5005590;27;103148;-56
2023/04/23 09:40:27;;;;;;;1.67;1.40;;;;;;;21.50;52.58;97965.69;5002449;27;104623;-56
2023/04/23 09:42:55;;;;;;;1.90;1.20;;;;;;;21.33;52.28;97960.63;5001230;27;106042;-56
2023/04/23 09:45:24;;;;;;;1.50;1.40;;;;;;;21.80;49.75;97945.59;5004118;27;102873;-57
2023/04/23 09:47:54;;;;;;;1.90;1.40;;;;;;;20.92;51.66;97950.75;5007189;27;102733;-57
2023/04/23 09:50:32;;;;;;;1.45;1.35;;;;;;;21.23;50.73;97946.72;5005028;27;103364;-57
2023/04/23 09:53:02;;;;;;;1.17;1.00;;;;;;;21.64;48.54;97940.56;5001509;27;103373;-57
2023/04/23 09:55:36;;;;;;;1.20;1.10;;;;;;;21.98;51.00;97937.84;4990557;27;102846;-56
2023/04/23 09:58:05;;;;;;;1.40;1.30;;;;;;;22.10;49.61;97935.41;5001098;27;102674;-57
2023/04/23 10:00:36;;;;;;;2.53;1.00;;;;;;;21.49;48.00;97931.78;5001228;27;104596;-56
2023/04/23 10:03:07;;;;;;;2.33;1.35;;;;;;;21.86;48.01;97934.91;5000325;27;103211;-57
2023/04/23 10:05:40;;;;;;;2.40;1.13;;;;;;;21.25;48.34;97931.22;5004566;27;102675;-57
2023/04/23 10:08:13;;;;;;;1.70;1.00;;;;;;;21.05;48.93;97919.47;4999956;27;102624;-56
2023/04/23 10:10:41;;;;;;;0.90;0.90;;;;;;;20.70;47.83;97923.13;4993603;27;104414;-57
2023/04/23 10:13:30;;;;;;;1.17;1.00;;;;;;;21.49;46.96;97918.34;5006149;27;103154;-56
2023/04/23 10:16:01;;;;;;;1.35;0.80;;;;;;;20.83;47.80;97912.47;4994498;27;102732;-56
2023/04/23 10:18:48;;;;;;;0.70;0.70;;;;;;;21.76;48.23;97904.00;5001830;27;102728;-56
2023/04/23 10:21:20;;;;;;;1.65;1.10;;;;;;;20.83;47.99;97893.69;5003086;27;107689;-56
2023/04/23 10:23:51;;;;;;;1.10;1.00;;;;;;;21.00;45.28;97900.44;4996786;27;103267;-57
2023/04/23 10:26:23;;;;;;;0.77;0.77;;;;;;;20.60;45.39;97903.84;4983225;27;104095;-57
2023/04/23 10:28:54;;;;;;;1.20;0.90;;;;;;;20.61;46.11;97905.47;4994293;27;104451;-57
2023/04/23 10:31:23;;;;;;;2.22;0.90;;;;;;;20.58;43.56;97901.34;5006504;27;105211;-57
2023/04/23 10:33:53;;;;;;;4.03;1.10;;;;;;;21.22;43.50;97894.00;4976860;27;103493;-56
2023/04/23 10:36:29;;;;;;;0.85;0.80;;;;;;;21.09;44.10;97891.25;4996179;27;102836;-56
2023/04/23 10:39:02;;;;;;;1.00;0.90;;;;;;;21.81;43.16;97877.38;4995147;27;106311;-57
2023/04/23 10:41:37;;;;;;;1.48;1.08;;;;;;;21.87;42.50;97879.28;4996478;27;105774;-57
2023/04/23 10:44:12;;;;;;;1.33;0.90;;;;;;;22.03;42.16;97873.56;5010187;27;103412;-56
2023/04/23 10:46:53;;;;;;;1.50;1.00;;;;;;;21.36;43.48;97873.44;5000498;27;104189;-57
2023/04/23 10:49:23;;;;;;;0.90;0.80;;;;;;;21.55;41.90;97872.72;4994145;27;103056;-56
2023/04/23 10:52:02;;;;;;;1.33;0.90;;;;;;;21.38;42.32;97866.84;4998122;27;103460;-56
2023/04/23 10:54:35;;;;;;;1.80;1.00;;;;;;;22.05;41.12;97858.03;5000585;27;103617;-57
2023/04/23 10:57:05;;;;;;;1.00;0.90;;;;;;;22.36;41.36;97858.31;4993202;27;103022;-56
2023/04/23 10:59:35;;;;;;;0.93;0.90;;;;;;;22.43;41.36;97856.44;4996289;27;102712;-57
2023/04/23 11:02:09;;;;;;;1.20;1.00;;;;;;;22.24;42.47;97854.56;4996144;27;103246;-56
2023/04/23 11:04:44;;;;;;;1.42;1.00;;;;;;;21.43;46.19;97849.28;4996910;27;103044;-56
2023/04/23 11:07:15;;;;;;;1.40;1.30;;;;;;;22.17;44.85;97845.66;4999204;27;102876;-56
2023/04/23 11:09:46;;;;;;;1.50;1.23;;;;;;;22.44;44.18;97847.34;5006644;27;102954;-57
2023/04/23 11:12:32;;;;;;;1.20;0.90;;;;;;;23.08;42.92;97827.84;4997745;27;104797;-57
2023/04/23 11:15:11;;;;;;;0.97;0.90;;;;;;;22.97;43.07;97831.19;4996956;27;103305;-56
2023/04/23 11:18:00;;;;;;;2.03;1.00;;;;;;;22.55;42.18;97837.81;5005279;27;102812;-56
2023/04/23 11:20:29;;;;;;;0.73;0.73;;;;;;;23.34;40.56;97835.88;5008649;27;102793;-56
2023/04/23 11:22:59;;;;;;;0.90;0.80;;;;;;;23.42;41.50;97835.66;5005717;27;104485;-57
2023/04/23 11:25:29;;;;;;;2.30;1.40;;;;;;;23.16;41.14;97827.63;5007023;27;104309;-57
2023/04/23 11:27:58;;;;;;;3.22;1.10;;;;;;;23.26;41.26;97822.63;4996417;27;102629;-57
2023/04/23 11:30:28;;;;;;;1.00;0.90;;;;;;;22.32;40.18;97832.81;4995107;27;102713;-57
2023/04/23 11:32:58;;;;;;;1.50;1.00;;;;;;;22.62;41.38;97822.50;5004142;27;106456;-57
2023/04/23 11:35:28;;;;;;;0.82;0.80;;;;;;;23.88;39.41;97818.47;5000951;27;103221;-57
2023/04/23 11:37:56;;;;;;;1.83;0.88;;;;;;;23.64;41.38;97814.63;5004348;27;104734;-57